sensor_id;sensor_type;location;lat;lon;timestamp;P1;durP1;ratioP1;P2;durP2;ratioP2
47259;SDS011;32999;52.412;4.890;2022-12-18T00:00:50;79.80;;;23.33;;
47259;SDS011;32999;52.412;4.890;2022-12-18T00:05:51;82.05;;;24.73;;
47259;SDS011;32999;52.412;4.890;2022-12-18T00:10:55;82.88;;;25.10;;
47259;SDS011;32999;52.412;4.890;2022-12-18T00:16:06;91.22;;;25.23;;
47259;SDS011;32999;52.412;4.890;2022-12-18T00:26:15;90.07;;;24.88;;
47259;SDS011;32999;52.412;4.890;2022-12-18T00:31:23;73.65;;;20.50;;
47259;SDS011;32999;52.412;4.890;2022-12-18T00:36:27;77.55;;;23.23;;
47259;SDS011;32999;52.412;4.890;2022-12-18T00:41:31;85.18;;;24.98;;
47259;SDS011;32999;52.412;4.890;2022-12-18T00:46:50;83.53;;;24.35;;
47259;SDS011;32999;52.412;4.890;2022-12-18T00:51:52;72.75;;;19.90;;
47259;SDS011;32999;52.412;4.890;2022-12-18T00:56:55;75.43;;;22.95;;
47259;SDS011;32999;52.412;4.890;2022-12-18T01:01:57;71.18;;;21.88;;
47259;SDS011;32999;52.412;4.890;2022-12-18T01:06:59;72.13;;;22.70;;
47259;SDS011;32999;52.412;4.890;2022-12-18T01:12:02;72.35;;;23.20;;
47259;SDS011;32999;52.412;4.890;2022-12-18T01:22:08;78.07;;;21.77;;
47259;SDS011;32999;52.412;4.890;2022-12-18T01:27:11;72.30;;;22.05;;
47259;SDS011;32999;52.412;4.890;2022-12-18T01:32:13;62.47;;;21.23;;
47259;SDS011;32999;52.412;4.890;2022-12-18T01:37:15;68.20;;;21.13;;
47259;SDS011;32999;52.412;4.890;2022-12-18T01:42:18;64.35;;;21.08;;
47259;SDS011;32999;52.412;4.890;2022-12-18T01:47:22;66.72;;;19.38;;
47259;SDS011;32999;52.412;4.890;2022-12-18T01:52:30;69.25;;;21.40;;
47259;SDS011;32999;52.412;4.890;2022-12-18T01:57:35;65.70;;;21.15;;
47259;SDS011;32999;52.412;4.890;2022-12-18T02:02:38;68.47;;;23.00;;
47259;SDS011;32999;52.412;4.890;2022-12-18T02:07:43;62.63;;;20.17;;
47259;SDS011;32999;52.412;4.890;2022-12-18T02:12:55;56.75;;;20.63;;
47259;SDS011;32999;52.412;4.890;2022-12-18T02:18:03;67.80;;;19.48;;
47259;SDS011;32999;52.412;4.890;2022-12-18T02:23:12;65.03;;;19.90;;
47259;SDS011;32999;52.412;4.890;2022-12-18T02:28:28;71.13;;;21.48;;
47259;SDS011;32999;52.412;4.890;2022-12-18T02:33:33;53.75;;;20.45;;
47259;SDS011;32999;52.412;4.890;2022-12-18T02:38:37;69.72;;;21.98;;
47259;SDS011;32999;52.412;4.890;2022-12-18T02:43:42;57.13;;;20.02;;
47259;SDS011;32999;52.412;4.890;2022-12-18T02:48:47;72.32;;;22.88;;
47259;SDS011;32999;52.412;4.890;2022-12-18T02:53:51;67.13;;;20.65;;
47259;SDS011;32999;52.412;4.890;2022-12-18T02:58:59;58.45;;;19.08;;
47259;SDS011;32999;52.412;4.890;2022-12-18T03:04:07;54.88;;;19.98;;
47259;SDS011;32999;52.412;4.890;2022-12-18T03:09:14;61.45;;;20.80;;
47259;SDS011;32999;52.412;4.890;2022-12-18T03:14:23;67.40;;;20.42;;
47259;SDS011;32999;52.412;4.890;2022-12-18T03:19:28;62.85;;;18.42;;
47259;SDS011;32999;52.412;4.890;2022-12-18T03:24:33;52.10;;;19.27;;
47259;SDS011;32999;52.412;4.890;2022-12-18T03:29:40;52.03;;;18.25;;
47259;SDS011;32999;52.412;4.890;2022-12-18T03:34:46;46.30;;;16.75;;
47259;SDS011;32999;52.412;4.890;2022-12-18T03:39:52;51.40;;;18.25;;
47259;SDS011;32999;52.412;4.890;2022-12-18T03:44:56;47.05;;;16.52;;
47259;SDS011;32999;52.412;4.890;2022-12-18T03:50:06;57.72;;;18.98;;
47259;SDS011;32999;52.412;4.890;2022-12-18T03:55:19;54.15;;;20.05;;
47259;SDS011;32999;52.412;4.890;2022-12-18T04:00:25;51.38;;;17.85;;
47259;SDS011;32999;52.412;4.890;2022-12-18T04:05:28;49.17;;;17.20;;
47259;SDS011;32999;52.412;4.890;2022-12-18T04:10:31;50.08;;;19.48;;
47259;SDS011;32999;52.412;4.890;2022-12-18T04:15:35;55.92;;;18.60;;
47259;SDS011;32999;52.412;4.890;2022-12-18T04:20:38;50.40;;;17.63;;
47259;SDS011;32999;52.412;4.890;2022-12-18T04:25:40;46.55;;;19.55;;
47259;SDS011;32999;52.412;4.890;2022-12-18T04:30:43;50.28;;;18.10;;
47259;SDS011;32999;52.412;4.890;2022-12-18T04:35:45;41.75;;;15.27;;
47259;SDS011;32999;52.412;4.890;2022-12-18T04:40:47;45.38;;;17.88;;
47259;SDS011;32999;52.412;4.890;2022-12-18T04:45:51;47.65;;;17.48;;
47259;SDS011;32999;52.412;4.890;2022-12-18T04:50:52;43.50;;;17.73;;
47259;SDS011;32999;52.412;4.890;2022-12-18T04:56:02;46.85;;;17.90;;
47259;SDS011;32999;52.412;4.890;2022-12-18T05:01:06;42.75;;;16.30;;
47259;SDS011;32999;52.412;4.890;2022-12-18T05:06:09;40.78;;;15.57;;
47259;SDS011;32999;52.412;4.890;2022-12-18T05:11:11;39.03;;;16.05;;
47259;SDS011;32999;52.412;4.890;2022-12-18T05:16:17;42.97;;;16.90;;
47259;SDS011;32999;52.412;4.890;2022-12-18T05:21:18;38.58;;;15.07;;
47259;SDS011;32999;52.412;4.890;2022-12-18T05:26:20;47.17;;;16.60;;
47259;SDS011;32999;52.412;4.890;2022-12-18T05:31:24;44.75;;;16.25;;
47259;SDS011;32999;52.412;4.890;2022-12-18T05:36:26;44.22;;;16.15;;
47259;SDS011;32999;52.412;4.890;2022-12-18T05:41:27;35.05;;;14.38;;
47259;SDS011;32999;52.412;4.890;2022-12-18T05:46:31;43.65;;;16.45;;
47259;SDS011;32999;52.412;4.890;2022-12-18T05:51:34;47.88;;;15.57;;
47259;SDS011;32999;52.412;4.890;2022-12-18T05:56:36;44.10;;;16.35;;
47259;SDS011;32999;52.412;4.890;2022-12-18T06:01:42;40.20;;;15.95;;
47259;SDS011;32999;52.412;4.890;2022-12-18T06:06:45;45.25;;;17.33;;
47259;SDS011;32999;52.412;4.890;2022-12-18T06:11:52;44.60;;;18.58;;
47259;SDS011;32999;52.412;4.890;2022-12-18T06:17:11;38.63;;;16.30;;
47259;SDS011;32999;52.412;4.890;2022-12-18T06:22:30;53.60;;;18.05;;
47259;SDS011;32999;52.412;4.890;2022-12-18T06:27:33;45.40;;;17.88;;
47259;SDS011;32999;52.412;4.890;2022-12-18T06:32:36;47.60;;;18.52;;
47259;SDS011;32999;52.412;4.890;2022-12-18T06:37:38;48.72;;;18.23;;
47259;SDS011;32999;52.412;4.890;2022-12-18T06:42:40;35.13;;;15.27;;
47259;SDS011;32999;52.412;4.890;2022-12-18T06:47:43;37.88;;;16.48;;
47259;SDS011;32999;52.412;4.890;2022-12-18T06:52:46;35.03;;;13.80;;
47259;SDS011;32999;52.412;4.890;2022-12-18T06:57:48;30.95;;;14.15;;
47259;SDS011;32999;52.412;4.890;2022-12-18T07:02:52;31.63;;;12.55;;
47259;SDS011;32999;52.412;4.890;2022-12-18T07:07:53;35.65;;;13.95;;
47259;SDS011;32999;52.412;4.890;2022-12-18T07:12:55;30.63;;;12.25;;
47259;SDS011;32999;52.412;4.890;2022-12-18T07:17:59;25.08;;;11.15;;
47259;SDS011;32999;52.412;4.890;2022-12-18T07:23:01;21.85;;;10.45;;
47259;SDS011;32999;52.412;4.890;2022-12-18T07:28:03;26.85;;;10.55;;
47259;SDS011;32999;52.412;4.890;2022-12-18T07:33:07;20.35;;;9.75;;
47259;SDS011;32999;52.412;4.890;2022-12-18T07:38:10;21.58;;;10.32;;
47259;SDS011;32999;52.412;4.890;2022-12-18T07:43:13;21.92;;;9.60;;
47259;SDS011;32999;52.412;4.890;2022-12-18T07:48:16;19.27;;;9.77;;
47259;SDS011;32999;52.412;4.890;2022-12-18T07:53:18;16.65;;;9.25;;
47259;SDS011;32999;52.412;4.890;2022-12-18T07:58:19;21.58;;;9.60;;
47259;SDS011;32999;52.412;4.890;2022-12-18T08:03:23;24.95;;;9.93;;
47259;SDS011;32999;52.412;4.890;2022-12-18T08:08:25;22.42;;;10.25;;
47259;SDS011;32999;52.412;4.890;2022-12-18T08:13:27;19.95;;;8.90;;
47259;SDS011;32999;52.412;4.890;2022-12-18T08:18:41;19.27;;;9.40;;
47259;SDS011;32999;52.412;4.890;2022-12-18T08:23:42;19.40;;;8.95;;
47259;SDS011;32999;52.412;4.890;2022-12-18T08:28:44;17.98;;;9.18;;
47259;SDS011;32999;52.412;4.890;2022-12-18T08:33:50;21.33;;;9.10;;
47259;SDS011;32999;52.412;4.890;2022-12-18T08:39:00;17.33;;;7.85;;
47259;SDS011;32999;52.412;4.890;2022-12-18T08:44:21;17.85;;;9.05;;
47259;SDS011;32999;52.412;4.890;2022-12-18T08:49:47;19.77;;;8.27;;
47259;SDS011;32999;52.412;4.890;2022-12-18T09:00:19;15.30;;;8.65;;
47259;SDS011;32999;52.412;4.890;2022-12-18T09:05:22;17.52;;;8.52;;
47259;SDS011;32999;52.412;4.890;2022-12-18T09:10:27;20.30;;;9.43;;
47259;SDS011;32999;52.412;4.890;2022-12-18T09:15:32;16.90;;;9.15;;
47259;SDS011;32999;52.412;4.890;2022-12-18T09:25:41;18.67;;;8.80;;
47259;SDS011;32999;52.412;4.890;2022-12-18T09:31:03;18.83;;;9.73;;
47259;SDS011;32999;52.412;4.890;2022-12-18T09:36:13;18.08;;;8.95;;
47259;SDS011;32999;52.412;4.890;2022-12-18T09:41:41;18.73;;;10.65;;
47259;SDS011;32999;52.412;4.890;2022-12-18T09:46:59;19.55;;;8.68;;
47259;SDS011;32999;52.412;4.890;2022-12-18T09:52:23;17.27;;;9.75;;
47259;SDS011;32999;52.412;4.890;2022-12-18T09:57:33;14.88;;;8.02;;
47259;SDS011;32999;52.412;4.890;2022-12-18T10:02:40;15.57;;;8.05;;
47259;SDS011;32999;52.412;4.890;2022-12-18T10:07:47;19.23;;;8.55;;
47259;SDS011;32999;52.412;4.890;2022-12-18T10:12:59;16.02;;;8.50;;
47259;SDS011;32999;52.412;4.890;2022-12-18T10:18:16;15.02;;;8.32;;
47259;SDS011;32999;52.412;4.890;2022-12-18T10:23:31;15.18;;;7.70;;
47259;SDS011;32999;52.412;4.890;2022-12-18T10:28:52;14.20;;;8.32;;
47259;SDS011;32999;52.412;4.890;2022-12-18T10:33:57;17.83;;;9.38;;
47259;SDS011;32999;52.412;4.890;2022-12-18T10:39:05;18.20;;;8.65;;
47259;SDS011;32999;52.412;4.890;2022-12-18T10:44:16;15.52;;;7.70;;
47259;SDS011;32999;52.412;4.890;2022-12-18T10:49:24;15.35;;;8.50;;
47259;SDS011;32999;52.412;4.890;2022-12-18T10:54:29;18.88;;;7.63;;
47259;SDS011;32999;52.412;4.890;2022-12-18T10:59:33;15.18;;;8.13;;
47259;SDS011;32999;52.412;4.890;2022-12-18T11:04:56;13.98;;;6.95;;
47259;SDS011;32999;52.412;4.890;2022-12-18T11:15:30;16.23;;;8.38;;
47259;SDS011;32999;52.412;4.890;2022-12-18T11:20:36;16.45;;;8.38;;
47259;SDS011;32999;52.412;4.890;2022-12-18T11:25:39;18.40;;;8.30;;
47259;SDS011;32999;52.412;4.890;2022-12-18T11:30:42;17.60;;;7.97;;
47259;SDS011;32999;52.412;4.890;2022-12-18T11:35:47;13.90;;;7.18;;
47259;SDS011;32999;52.412;4.890;2022-12-18T11:41:05;13.60;;;7.57;;
47259;SDS011;32999;52.412;4.890;2022-12-18T11:46:19;15.77;;;8.80;;
47259;SDS011;32999;52.412;4.890;2022-12-18T11:51:32;14.73;;;7.63;;
47259;SDS011;32999;52.412;4.890;2022-12-18T11:56:43;13.60;;;7.77;;
47259;SDS011;32999;52.412;4.890;2022-12-18T12:01:51;14.48;;;7.20;;
47259;SDS011;32999;52.412;4.890;2022-12-18T12:06:59;14.05;;;7.13;;
47259;SDS011;32999;52.412;4.890;2022-12-18T12:12:22;14.10;;;7.72;;
47259;SDS011;32999;52.412;4.890;2022-12-18T12:17:47;14.50;;;8.05;;
47259;SDS011;32999;52.412;4.890;2022-12-18T12:23:00;13.80;;;7.22;;
47259;SDS011;32999;52.412;4.890;2022-12-18T12:28:19;14.70;;;7.25;;
47259;SDS011;32999;52.412;4.890;2022-12-18T12:39:13;15.35;;;7.78;;
47259;SDS011;32999;52.412;4.890;2022-12-18T12:44:39;17.27;;;8.70;;
47259;SDS011;32999;52.412;4.890;2022-12-18T12:55:35;14.43;;;8.77;;
47259;SDS011;32999;52.412;4.890;2022-12-18T13:00:46;15.65;;;7.95;;
47259;SDS011;32999;52.412;4.890;2022-12-18T13:06:08;16.50;;;8.38;;
47259;SDS011;32999;52.412;4.890;2022-12-18T13:11:36;16.33;;;8.30;;
47259;SDS011;32999;52.412;4.890;2022-12-18T13:28:09;13.80;;;6.57;;
47259;SDS011;32999;52.412;4.890;2022-12-18T13:44:44;18.98;;;9.52;;
47259;SDS011;32999;52.412;4.890;2022-12-18T13:49:59;16.25;;;8.95;;
47259;SDS011;32999;52.412;4.890;2022-12-18T13:55:43;14.55;;;8.07;;
47259;SDS011;32999;52.412;4.890;2022-12-18T14:01:30;14.70;;;7.95;;
47259;SDS011;32999;52.412;4.890;2022-12-18T14:06:33;14.18;;;7.80;;
47259;SDS011;32999;52.412;4.890;2022-12-18T14:11:37;13.45;;;7.47;;
47259;SDS011;32999;52.412;4.890;2022-12-18T14:16:45;16.15;;;8.15;;
47259;SDS011;32999;52.412;4.890;2022-12-18T14:22:09;17.33;;;8.13;;
47259;SDS011;32999;52.412;4.890;2022-12-18T14:32:44;16.70;;;7.15;;
47259;SDS011;32999;52.412;4.890;2022-12-18T14:38:23;14.95;;;7.60;;
47259;SDS011;32999;52.412;4.890;2022-12-18T14:44:05;14.45;;;7.78;;
47259;SDS011;32999;52.412;4.890;2022-12-18T14:55:19;17.83;;;7.97;;
47259;SDS011;32999;52.412;4.890;2022-12-18T15:00:28;18.50;;;8.57;;
47259;SDS011;32999;52.412;4.890;2022-12-18T15:05:40;13.57;;;6.57;;
47259;SDS011;32999;52.412;4.890;2022-12-18T15:11:26;17.88;;;8.25;;
47259;SDS011;32999;52.412;4.890;2022-12-18T15:16:57;13.55;;;7.03;;
47259;SDS011;32999;52.412;4.890;2022-12-18T15:22:22;15.00;;;7.55;;
47259;SDS011;32999;52.412;4.890;2022-12-18T15:27:31;19.23;;;8.70;;
47259;SDS011;32999;52.412;4.890;2022-12-18T15:32:36;17.88;;;8.75;;
47259;SDS011;32999;52.412;4.890;2022-12-18T15:37:44;14.32;;;7.85;;
47259;SDS011;32999;52.412;4.890;2022-12-18T15:48:37;17.77;;;8.48;;
47259;SDS011;32999;52.412;4.890;2022-12-18T15:53:54;14.52;;;6.75;;
47259;SDS011;32999;52.412;4.890;2022-12-18T15:58:58;13.73;;;7.70;;
47259;SDS011;32999;52.412;4.890;2022-12-18T16:04:06;16.15;;;8.20;;
47259;SDS011;32999;52.412;4.890;2022-12-18T16:15:31;18.65;;;8.45;;
47259;SDS011;32999;52.412;4.890;2022-12-18T16:27:06;18.42;;;8.80;;
47259;SDS011;32999;52.412;4.890;2022-12-18T16:32:11;20.88;;;10.68;;
47259;SDS011;32999;52.412;4.890;2022-12-18T16:37:18;22.90;;;10.43;;
47259;SDS011;32999;52.412;4.890;2022-12-18T16:42:31;18.65;;;9.35;;
47259;SDS011;32999;52.412;4.890;2022-12-18T16:47:40;13.43;;;8.13;;
47259;SDS011;32999;52.412;4.890;2022-12-18T16:53:26;19.70;;;9.20;;
47259;SDS011;32999;52.412;4.890;2022-12-18T17:05:16;17.10;;;9.23;;
47259;SDS011;32999;52.412;4.890;2022-12-18T17:10:18;19.65;;;8.48;;
47259;SDS011;32999;52.412;4.890;2022-12-18T17:15:20;20.60;;;10.10;;
47259;SDS011;32999;52.412;4.890;2022-12-18T17:20:24;17.05;;;8.65;;
47259;SDS011;32999;52.412;4.890;2022-12-18T17:25:27;18.38;;;9.07;;
47259;SDS011;32999;52.412;4.890;2022-12-18T17:30:28;17.75;;;9.35;;
47259;SDS011;32999;52.412;4.890;2022-12-18T17:35:32;19.42;;;9.85;;
47259;SDS011;32999;52.412;4.890;2022-12-18T17:40:34;16.02;;;9.55;;
47259;SDS011;32999;52.412;4.890;2022-12-18T17:45:36;21.05;;;10.25;;
47259;SDS011;32999;52.412;4.890;2022-12-18T17:50:40;17.52;;;8.98;;
47259;SDS011;32999;52.412;4.890;2022-12-18T17:55:45;22.30;;;10.23;;
47259;SDS011;32999;52.412;4.890;2022-12-18T18:00:55;18.23;;;10.77;;
47259;SDS011;32999;52.412;4.890;2022-12-18T18:06:00;17.55;;;8.57;;
47259;SDS011;32999;52.412;4.890;2022-12-18T18:11:03;20.90;;;9.20;;
47259;SDS011;32999;52.412;4.890;2022-12-18T18:16:19;20.10;;;10.15;;
47259;SDS011;32999;52.412;4.890;2022-12-18T18:21:23;20.33;;;10.77;;
47259;SDS011;32999;52.412;4.890;2022-12-18T18:26:25;26.13;;;12.60;;
47259;SDS011;32999;52.412;4.890;2022-12-18T18:31:28;18.45;;;10.13;;
47259;SDS011;32999;52.412;4.890;2022-12-18T18:36:33;19.88;;;9.38;;
47259;SDS011;32999;52.412;4.890;2022-12-18T18:41:37;25.75;;;10.25;;
47259;SDS011;32999;52.412;4.890;2022-12-18T18:46:40;19.85;;;10.45;;
47259;SDS011;32999;52.412;4.890;2022-12-18T18:51:48;19.65;;;10.13;;
47259;SDS011;32999;52.412;4.890;2022-12-18T18:57:00;19.70;;;10.65;;
47259;SDS011;32999;52.412;4.890;2022-12-18T19:02:20;19.92;;;9.43;;
47259;SDS011;32999;52.412;4.890;2022-12-18T19:07:23;27.15;;;12.18;;
47259;SDS011;32999;52.412;4.890;2022-12-18T19:12:25;20.25;;;10.70;;
47259;SDS011;32999;52.412;4.890;2022-12-18T19:17:44;18.92;;;10.73;;
47259;SDS011;32999;52.412;4.890;2022-12-18T19:22:47;21.13;;;9.90;;
47259;SDS011;32999;52.412;4.890;2022-12-18T19:27:49;23.08;;;11.27;;
47259;SDS011;32999;52.412;4.890;2022-12-18T19:32:51;23.17;;;11.77;;
47259;SDS011;32999;52.412;4.890;2022-12-18T19:37:54;27.90;;;12.80;;
47259;SDS011;32999;52.412;4.890;2022-12-18T19:42:56;23.52;;;11.82;;
47259;SDS011;32999;52.412;4.890;2022-12-18T19:47:57;28.08;;;14.50;;
47259;SDS011;32999;52.412;4.890;2022-12-18T19:53:01;26.23;;;13.48;;
47259;SDS011;32999;52.412;4.890;2022-12-18T19:58:03;33.28;;;12.73;;
47259;SDS011;32999;52.412;4.890;2022-12-18T20:03:05;25.77;;;13.45;;
47259;SDS011;32999;52.412;4.890;2022-12-18T20:08:11;31.52;;;15.23;;
47259;SDS011;32999;52.412;4.890;2022-12-18T20:13:14;26.45;;;13.32;;
47259;SDS011;32999;52.412;4.890;2022-12-18T20:18:16;29.95;;;14.43;;
47259;SDS011;32999;52.412;4.890;2022-12-18T20:23:19;33.30;;;16.38;;
47259;SDS011;32999;52.412;4.890;2022-12-18T20:28:22;32.80;;;14.77;;
47259;SDS011;32999;52.412;4.890;2022-12-18T20:33:28;35.42;;;14.98;;
47259;SDS011;32999;52.412;4.890;2022-12-18T20:38:54;34.13;;;17.13;;
47259;SDS011;32999;52.412;4.890;2022-12-18T20:44:02;36.05;;;15.70;;
47259;SDS011;32999;52.412;4.890;2022-12-18T20:49:05;32.00;;;16.30;;
47259;SDS011;32999;52.412;4.890;2022-12-18T20:54:08;31.42;;;16.67;;
47259;SDS011;32999;52.412;4.890;2022-12-18T20:59:13;38.08;;;16.85;;
47259;SDS011;32999;52.412;4.890;2022-12-18T21:04:15;35.92;;;16.88;;
47259;SDS011;32999;52.412;4.890;2022-12-18T21:09:19;37.17;;;17.23;;
47259;SDS011;32999;52.412;4.890;2022-12-18T21:14:22;37.78;;;17.05;;
47259;SDS011;32999;52.412;4.890;2022-12-18T21:19:25;34.03;;;15.60;;
47259;SDS011;32999;52.412;4.890;2022-12-18T21:24:29;35.33;;;16.45;;
47259;SDS011;32999;52.412;4.890;2022-12-18T21:29:31;35.05;;;15.75;;
47259;SDS011;32999;52.412;4.890;2022-12-18T21:34:34;45.28;;;17.58;;
47259;SDS011;32999;52.412;4.890;2022-12-18T21:39:38;40.88;;;18.35;;
47259;SDS011;32999;52.412;4.890;2022-12-18T21:44:46;37.33;;;16.80;;
47259;SDS011;32999;52.412;4.890;2022-12-18T21:55:04;45.17;;;18.73;;
47259;SDS011;32999;52.412;4.890;2022-12-18T22:00:10;38.13;;;17.27;;
47259;SDS011;32999;52.412;4.890;2022-12-18T22:05:19;45.78;;;16.85;;
47259;SDS011;32999;52.412;4.890;2022-12-18T22:10:24;42.40;;;19.17;;
47259;SDS011;32999;52.412;4.890;2022-12-18T22:15:26;37.22;;;16.80;;
47259;SDS011;32999;52.412;4.890;2022-12-18T22:20:29;45.88;;;19.52;;
47259;SDS011;32999;52.412;4.890;2022-12-18T22:25:33;42.60;;;17.88;;
47259;SDS011;32999;52.412;4.890;2022-12-18T22:30:36;46.13;;;18.60;;
47259;SDS011;32999;52.412;4.890;2022-12-18T22:35:37;45.90;;;18.38;;
47259;SDS011;32999;52.412;4.890;2022-12-18T22:40:48;42.33;;;18.80;;
47259;SDS011;32999;52.412;4.890;2022-12-18T22:45:50;45.72;;;18.55;;
47259;SDS011;32999;52.412;4.890;2022-12-18T22:50:52;45.33;;;18.38;;
47259;SDS011;32999;52.412;4.890;2022-12-18T22:56:00;50.28;;;19.08;;
47259;SDS011;32999;52.412;4.890;2022-12-18T23:01:02;50.30;;;20.67;;
47259;SDS011;32999;52.412;4.890;2022-12-18T23:06:05;49.85;;;18.85;;
47259;SDS011;32999;52.412;4.890;2022-12-18T23:11:09;46.03;;;20.77;;
47259;SDS011;32999;52.412;4.890;2022-12-18T23:16:12;43.50;;;20.33;;
47259;SDS011;32999;52.412;4.890;2022-12-18T23:21:15;44.13;;;19.23;;
47259;SDS011;32999;52.412;4.890;2022-12-18T23:26:21;52.23;;;21.73;;
47259;SDS011;32999;52.412;4.890;2022-12-18T23:31:25;48.38;;;19.05;;
47259;SDS011;32999;52.412;4.890;2022-12-18T23:36:28;49.92;;;19.45;;
47259;SDS011;32999;52.412;4.890;2022-12-18T23:41:31;53.08;;;21.27;;
47259;SDS011;32999;52.412;4.890;2022-12-18T23:46:33;51.13;;;21.13;;
47259;SDS011;32999;52.412;4.890;2022-12-18T23:51:36;55.00;;;20.77;;
47259;SDS011;32999;52.412;4.890;2022-12-18T23:56:40;55.55;;;20.95;;
